EmailTwitter


Surface observations / United Kingdom / EGHI (03865)

Regions: Quebec | Canada | USA | Europe | France | UK | Elsewhere
Station
Display
Info & Location for EGHI (03865) | Help decoding METAR

Weather Conditions observed on 2020/05/27 at 12:50 UTC at SOUTHAMPTON WX C, UK (EGHI)

Sky conditions: variable clouds.

Temperature: 24.0 Celsius.

Dewpoint: 10.0 Celsius.

Relative Humidity: 41%

Humidex: 25.

Winds: Variable at 6 km/h or 3 knots.

Mean Sea level Pressure: 103.50 kilopascals.

Horizontal visibility: 6.21 statute miles or 9.94 kilometers.

Coded METAR:

EGHI 271250Z VRB03KT 9999 SCT048 24/10 Q1035=